createdAt,value
2022-11-14T00:01:28.716Z,22.20
2022-11-14T00:04:16.053Z,22.57
2022-11-14T00:07:03.414Z,23.80
2022-11-14T00:09:50.786Z,23.00
2022-11-14T00:12:38.213Z,24.33
2022-11-14T00:15:25.554Z,23.50
2022-11-14T00:18:12.936Z,24.27
2022-11-14T00:21:00.282Z,23.87
2022-11-14T00:23:47.698Z,22.37
2022-11-14T00:26:35.077Z,23.47
2022-11-14T00:29:22.402Z,23.37
2022-11-14T00:32:09.765Z,22.67
2022-11-14T00:34:57.116Z,24.10
2022-11-14T00:37:44.465Z,23.00
2022-11-14T00:40:31.801Z,23.33
2022-11-14T00:43:19.289Z,23.23
2022-11-14T00:46:06.736Z,21.97
2022-11-14T00:48:54.108Z,23.10
2022-11-14T00:51:41.453Z,22.50
2022-11-14T00:54:28.836Z,23.63
2022-11-14T00:57:16.226Z,22.67
2022-11-14T01:00:04.528Z,23.67
2022-11-14T01:02:51.895Z,24.63
2022-11-14T01:05:43.053Z,23.80
2022-11-14T01:08:30.646Z,22.10
2022-11-14T01:11:19.348Z,25.30
2022-11-14T01:14:07.237Z,23.53
2022-11-14T01:16:54.576Z,23.30
2022-11-14T01:19:41.933Z,22.93
2022-11-14T01:22:30.425Z,24.47
2022-11-14T01:25:17.790Z,22.80
2022-11-14T01:28:15.543Z,24.50
2022-11-14T01:31:32.409Z,24.07
2022-11-14T01:34:19.770Z,22.57
2022-11-14T01:37:07.146Z,24.23
2022-11-14T01:39:54.522Z,24.27
2022-11-14T01:42:41.954Z,24.07
2022-11-14T01:45:48.152Z,23.87
2022-11-14T01:48:43.649Z,24.17
2022-11-14T01:51:36.079Z,23.80
2022-11-14T01:54:25.918Z,23.40
2022-11-14T01:57:15.215Z,24.27
2022-11-14T02:00:05.575Z,22.60
2022-11-14T02:02:53.281Z,23.17
2022-11-14T02:05:41.171Z,24.27
2022-11-14T02:08:28.842Z,23.57
2022-11-14T02:11:16.395Z,21.90
2022-11-14T02:14:03.892Z,22.70
2022-11-14T02:17:14.302Z,25.17
2022-11-14T02:20:11.312Z,22.97
2022-11-14T02:22:58.771Z,24.50
2022-11-14T02:25:46.130Z,24.47
2022-11-14T02:28:33.496Z,23.33
2022-11-14T02:31:20.936Z,24.90
2022-11-14T02:34:08.272Z,23.77
2022-11-14T02:36:55.678Z,25.07
2022-11-14T02:39:43.014Z,24.23
2022-11-14T02:42:30.348Z,23.17
2022-11-14T02:45:17.817Z,23.50
2022-11-14T02:48:05.427Z,24.50
2022-11-14T02:50:52.748Z,24.83
2022-11-14T02:53:40.059Z,24.23
2022-11-14T02:56:27.420Z,24.47
2022-11-14T02:59:14.767Z,25.20
2022-11-14T03:02:02.329Z,23.57
2022-11-14T03:04:49.789Z,25.00
2022-11-14T03:07:37.201Z,24.00
2022-11-14T03:10:24.698Z,24.13
2022-11-14T03:13:12.353Z,25.10
2022-11-14T03:16:05.524Z,24.27
2022-11-14T03:18:52.873Z,25.63
2022-11-14T03:21:40.292Z,24.60
2022-11-14T03:24:27.617Z,23.60
2022-11-14T03:27:14.574Z,23.97
2022-11-14T03:30:01.913Z,24.17
2022-11-14T03:32:49.274Z,23.73
2022-11-14T03:35:36.280Z,24.10
2022-11-14T03:38:23.574Z,24.83
2022-11-14T03:41:10.653Z,24.20
2022-11-14T03:43:57.610Z,24.67
2022-11-14T03:46:44.719Z,24.00
2022-11-14T03:49:31.692Z,23.17
2022-11-14T03:52:18.712Z,24.53
2022-11-14T03:55:06.200Z,23.90
2022-11-14T03:57:53.195Z,23.53
2022-11-14T04:00:40.199Z,22.70
2022-11-14T04:03:27.159Z,23.83
2022-11-14T04:06:15.199Z,24.23
2022-11-14T04:09:02.168Z,23.57
2022-11-14T04:11:49.100Z,22.30
2022-11-14T04:14:36.077Z,23.37
2022-11-14T04:17:23.093Z,22.87
2022-11-14T04:20:10.842Z,24.10
2022-11-14T04:22:57.774Z,23.53
2022-11-14T04:25:46.318Z,23.03
2022-11-14T04:28:33.363Z,24.17
2022-11-14T04:31:20.462Z,23.90
2022-11-14T04:34:07.388Z,23.83
2022-11-14T04:36:54.365Z,25.43
2022-11-14T04:39:41.330Z,24.20
2022-11-14T04:42:28.664Z,24.57
2022-11-14T04:45:15.833Z,25.33
2022-11-14T04:48:05.386Z,25.40
2022-11-14T04:50:56.571Z,23.80
2022-11-14T04:53:47.241Z,24.30
2022-11-14T04:56:37.504Z,22.47
2022-11-14T04:59:27.215Z,24.47
2022-11-14T05:02:15.728Z,23.03
2022-11-14T05:05:03.150Z,23.73
2022-11-14T05:07:51.735Z,23.63
2022-11-14T05:10:40.312Z,26.47
2022-11-14T05:13:30.045Z,24.70
2022-11-14T05:16:20.604Z,23.90
2022-11-14T05:19:09.185Z,24.67
2022-11-14T05:21:57.557Z,25.73
2022-11-14T05:24:46.949Z,25.20
2022-11-14T05:27:36.536Z,26.00
2022-11-14T05:30:24.878Z,25.67
2022-11-14T05:33:26.492Z,24.70
2022-11-14T05:36:19.425Z,27.10
2022-11-14T05:39:06.786Z,25.37
2022-11-14T05:41:53.731Z,24.70
2022-11-14T05:44:40.666Z,25.30
2022-11-14T05:47:27.639Z,25.73
2022-11-14T05:50:16.225Z,24.80
2022-11-14T05:53:03.202Z,26.97
2022-11-14T05:55:50.320Z,25.80
2022-11-14T05:58:37.674Z,27.97
2022-11-14T06:01:24.618Z,25.57
2022-11-14T06:04:13.982Z,27.00
2022-11-14T06:07:00.933Z,26.27
2022-11-14T06:09:47.876Z,25.13
2022-11-14T06:12:34.781Z,26.37
2022-11-14T06:15:22.155Z,26.73
2022-11-14T06:18:09.492Z,26.03
2022-11-14T06:21:04.141Z,25.23
2022-11-14T06:23:51.504Z,25.43
2022-11-14T06:26:38.454Z,27.10
2022-11-14T06:29:25.368Z,27.23
2022-11-14T06:32:12.282Z,29.80
2022-11-14T06:34:59.309Z,27.43
2022-11-14T06:37:46.239Z,27.87
2022-11-14T06:40:33.171Z,29.27
2022-11-14T06:43:20.213Z,28.57
2022-11-14T06:46:09.278Z,27.50
2022-11-14T06:48:56.201Z,28.83
2022-11-14T06:51:43.102Z,30.27
2022-11-14T06:54:30.092Z,31.70
2022-11-14T06:57:17.014Z,30.80
2022-11-14T07:00:04.854Z,29.67
2022-11-14T07:02:51.856Z,28.77
2022-11-14T07:05:40.907Z,29.63
2022-11-14T07:08:28.625Z,30.03
2022-11-14T07:11:25.712Z,29.40
2022-11-14T07:14:12.673Z,30.23
2022-11-14T07:17:00.641Z,29.13
2022-11-14T07:19:47.578Z,30.63
2022-11-14T07:22:34.515Z,29.83
2022-11-14T07:25:22.752Z,30.37
2022-11-14T07:28:10.110Z,31.00
2022-11-14T07:30:57.475Z,33.37
2022-11-14T07:33:45.510Z,30.13
2022-11-14T07:36:32.842Z,30.13
2022-11-14T07:39:19.796Z,30.00
2022-11-14T07:42:06.748Z,30.17
2022-11-14T07:44:53.660Z,30.40
2022-11-14T07:47:41.020Z,31.33
2022-11-14T07:50:29.435Z,30.13
2022-11-14T07:53:17.764Z,30.13
2022-11-14T07:56:06.852Z,30.60
2022-11-14T07:58:53.823Z,29.50
2022-11-14T08:01:40.744Z,30.93
2022-11-14T08:04:30.224Z,31.63
2022-11-14T08:07:17.598Z,32.27
2022-11-14T08:10:05.293Z,30.87
2022-11-14T08:13:31.811Z,32.47
2022-11-14T08:16:13.895Z,32.53
2022-11-14T08:19:01.872Z,33.10
2022-11-14T08:21:48.841Z,30.80
2022-11-14T08:24:36.210Z,31.90
2022-11-14T08:27:24.159Z,29.37
2022-11-14T08:30:11.766Z,30.37
2022-11-14T08:33:02.712Z,32.47
2022-11-14T08:35:49.636Z,31.50
2022-11-14T08:38:37.210Z,31.07
2022-11-14T08:41:24.162Z,29.83
2022-11-14T08:44:11.151Z,31.63
2022-11-14T08:47:00.225Z,29.87
2022-11-14T08:49:47.118Z,31.77
2022-11-14T08:52:34.711Z,30.23
2022-11-14T08:55:22.101Z,30.93
2022-11-14T08:58:09.438Z,30.37
2022-11-14T09:01:00.026Z,30.57
2022-11-14T09:03:47.115Z,29.80
2022-11-14T09:06:34.478Z,28.50
2022-11-14T09:09:21.453Z,28.17
2022-11-14T09:12:08.457Z,29.20
2022-11-14T09:14:55.393Z,28.47
2022-11-14T09:17:42.395Z,27.83
2022-11-14T09:20:33.229Z,29.10
2022-11-14T09:23:25.394Z,29.80
2022-11-14T09:26:12.756Z,30.80
2022-11-14T09:29:00.840Z,29.27
2022-11-14T09:31:48.272Z,30.67
2022-11-14T09:34:37.129Z,30.13
2022-11-14T09:37:24.494Z,28.20
2022-11-14T09:40:13.869Z,28.93
2022-11-14T09:43:04.134Z,30.07
2022-11-14T09:45:53.014Z,27.43
2022-11-14T09:48:40.365Z,26.57
2022-11-14T09:51:33.313Z,28.53
2022-11-14T09:54:26.677Z,27.97
2022-11-14T09:57:18.556Z,28.50
2022-11-14T10:00:19.158Z,27.27
2022-11-14T10:03:47.480Z,28.13
2022-11-14T10:06:45.425Z,27.33
2022-11-14T10:09:54.391Z,27.63
2022-11-14T10:13:00.137Z,26.37
2022-11-14T10:15:56.193Z,26.50
2022-11-14T10:18:48.401Z,25.00
2022-11-14T10:21:39.735Z,27.67
2022-11-14T10:24:38.243Z,25.83
2022-11-14T10:27:30.934Z,26.93
2022-11-14T10:30:19.203Z,26.60
2022-11-14T10:33:18.218Z,28.03
2022-11-14T10:36:14.064Z,26.50
2022-11-14T10:39:12.517Z,26.40
2022-11-14T10:42:08.490Z,27.53
2022-11-14T10:45:08.472Z,25.07
2022-11-14T10:48:03.841Z,25.00
2022-11-14T10:50:59.140Z,25.00
2022-11-14T10:53:49.107Z,25.70
2022-11-14T10:56:54.249Z,27.87
2022-11-14T10:59:43.321Z,26.00
2022-11-14T11:02:49.351Z,26.47
2022-11-14T11:05:50.505Z,25.80
2022-11-14T11:09:03.040Z,24.73
2022-11-14T11:12:02.874Z,27.57
2022-11-14T11:15:10.949Z,24.90
2022-11-14T11:17:58.017Z,25.47
2022-11-14T11:20:45.771Z,24.97
2022-11-14T11:23:33.420Z,25.53
2022-11-14T11:26:26.795Z,26.23
2022-11-14T11:29:14.562Z,25.17
2022-11-14T11:32:01.621Z,26.47
2022-11-14T11:34:49.213Z,25.57
2022-11-14T11:37:46.508Z,24.50
2022-11-14T11:40:33.817Z,25.50
2022-11-14T11:43:41.342Z,25.43
2022-11-14T11:46:48.050Z,25.70
2022-11-14T11:49:35.350Z,25.17
2022-11-14T11:52:49.977Z,25.53
2022-11-14T11:55:53.367Z,25.50
2022-11-14T11:58:46.106Z,26.43
2022-11-14T12:01:33.309Z,25.80
2022-11-14T12:04:20.441Z,25.43
2022-11-14T12:07:18.953Z,25.10
2022-11-14T12:10:24.628Z,26.77
2022-11-14T12:13:42.767Z,25.70
2022-11-14T12:17:00.509Z,23.07
2022-11-14T12:19:56.407Z,25.03
2022-11-14T12:22:56.102Z,23.07
2022-11-14T12:25:49.114Z,24.97
2022-11-14T12:29:13.152Z,23.67
2022-11-14T12:32:06.740Z,23.67
2022-11-14T12:34:54.240Z,24.57
2022-11-14T12:37:49.007Z,23.93
2022-11-14T12:40:41.486Z,24.93
2022-11-14T12:43:40.583Z,23.80
2022-11-14T12:46:27.852Z,24.90
2022-11-14T12:49:37.286Z,24.53
2022-11-14T12:52:46.417Z,24.63
2022-11-14T12:55:36.070Z,23.87
2022-11-14T12:58:50.173Z,23.47
2022-11-14T13:01:53.493Z,23.17
2022-11-14T13:05:03.546Z,23.83
2022-11-14T13:08:16.560Z,23.90
2022-11-14T13:11:54.999Z,24.47
2022-11-14T13:15:11.150Z,22.10
2022-11-14T13:18:51.372Z,23.80
2022-11-14T13:21:47.799Z,22.63
2022-11-14T13:24:59.830Z,24.27
2022-11-14T13:31:16.590Z,23.20
2022-11-14T13:34:31.531Z,23.90
2022-11-14T13:37:46.291Z,23.70
2022-11-14T13:41:02.412Z,24.33
2022-11-14T13:44:15.418Z,22.93
2022-11-14T13:47:34.697Z,23.07
2022-11-14T13:50:36.762Z,23.73
2022-11-14T13:53:27.157Z,23.00
2022-11-14T13:56:33.310Z,25.67
2022-11-14T13:59:37.513Z,23.07
2022-11-14T14:02:30.232Z,26.37
2022-11-14T14:05:36.311Z,25.37
2022-11-14T14:08:35.259Z,23.40
2022-11-14T14:11:47.178Z,23.53
2022-11-14T14:14:57.607Z,23.47
2022-11-14T14:18:06.379Z,23.43
2022-11-14T14:21:05.310Z,24.83
2022-11-14T14:24:28.356Z,24.50
2022-11-14T14:27:30.338Z,23.50
2022-11-14T14:30:18.996Z,24.30
2022-11-14T14:33:09.022Z,24.17
2022-11-14T14:35:56.629Z,23.93
2022-11-14T14:38:44.232Z,23.60
2022-11-14T14:41:32.482Z,24.77
2022-11-14T14:44:25.234Z,24.27
2022-11-14T14:47:16.784Z,23.57
2022-11-14T14:50:13.013Z,25.23
2022-11-14T14:53:02.367Z,23.60
2022-11-14T14:55:57.293Z,24.60
2022-11-14T14:58:44.666Z,25.60
2022-11-14T15:01:35.648Z,23.80
2022-11-14T15:04:26.497Z,25.47
2022-11-14T15:07:26.264Z,25.40
2022-11-14T15:10:24.889Z,25.77
2022-11-14T15:13:16.193Z,26.10
2022-11-14T15:16:04.488Z,24.60
2022-11-14T15:18:59.396Z,24.87
2022-11-14T15:22:04.705Z,26.80
2022-11-14T15:25:06.936Z,25.97
2022-11-14T15:27:55.585Z,24.93
2022-11-14T15:30:43.304Z,25.10
2022-11-14T15:33:32.614Z,24.57
2022-11-14T15:36:19.606Z,23.93
2022-11-14T15:39:26.655Z,24.50
2022-11-14T15:42:31.796Z,24.87
2022-11-14T15:45:38.823Z,23.67
2022-11-14T15:48:25.831Z,24.90
2022-11-14T15:51:12.801Z,23.40
2022-11-14T15:53:59.795Z,24.40
2022-11-14T15:56:47.410Z,24.30
2022-11-14T15:59:35.007Z,23.93
2022-11-14T16:02:34.242Z,25.67
2022-11-14T16:05:30.525Z,25.73
2022-11-14T16:08:17.466Z,25.77
2022-11-14T16:11:04.596Z,24.70
2022-11-14T16:13:51.528Z,27.47
2022-11-14T16:16:38.966Z,24.87
2022-11-14T16:19:25.974Z,27.60
2022-11-14T16:22:16.945Z,26.07
2022-11-14T16:25:04.140Z,24.37
2022-11-14T16:27:51.205Z,23.63
2022-11-14T16:30:40.205Z,23.50
2022-11-14T16:33:27.248Z,26.13
2022-11-14T16:36:14.312Z,26.63
2022-11-14T16:39:03.420Z,26.30
2022-11-14T16:41:50.400Z,24.53
2022-11-14T16:44:42.738Z,24.63
2022-11-14T16:47:32.792Z,25.93
2022-11-14T16:50:20.040Z,26.13
2022-11-14T16:53:07.085Z,26.80
2022-11-14T16:55:54.335Z,25.30
2022-11-14T16:58:41.959Z,24.57
2022-11-14T17:01:31.337Z,25.03
2022-11-14T17:04:18.341Z,24.37
2022-11-14T17:07:06.439Z,24.73
2022-11-14T17:09:53.399Z,27.37
2022-11-14T17:12:40.758Z,22.83
2022-11-14T17:15:28.198Z,24.60
2022-11-14T17:18:15.236Z,26.23
2022-11-14T17:21:05.688Z,25.93
2022-11-14T17:24:01.413Z,26.90
2022-11-14T17:26:48.869Z,27.20
2022-11-14T17:29:35.843Z,24.67
2022-11-14T17:32:22.770Z,24.17
2022-11-14T17:35:10.398Z,24.47
2022-11-14T17:38:00.305Z,24.10
2022-11-14T17:40:48.031Z,24.00
2022-11-14T17:43:39.510Z,26.30
2022-11-14T17:46:27.508Z,23.90
2022-11-14T17:49:14.522Z,25.70
2022-11-14T17:52:01.545Z,23.07
2022-11-14T17:54:48.869Z,24.03
2022-11-14T17:57:36.246Z,25.47
2022-11-14T18:00:23.713Z,26.17
2022-11-14T18:03:11.132Z,25.93
2022-11-14T18:06:08.830Z,23.70
2022-11-14T18:08:55.794Z,23.70
2022-11-14T18:11:42.786Z,23.60
2022-11-14T18:14:30.138Z,24.53
2022-11-14T18:17:17.551Z,25.50
2022-11-14T18:20:05.796Z,25.70
2022-11-14T18:22:53.027Z,25.43
2022-11-14T18:25:39.982Z,25.90
2022-11-14T18:28:27.057Z,25.10
2022-11-14T18:31:14.246Z,27.67
2022-11-14T18:34:02.845Z,27.10
2022-11-14T18:36:51.313Z,26.73
2022-11-14T18:39:38.293Z,26.37
2022-11-14T18:42:25.289Z,25.57
2022-11-14T18:45:12.688Z,27.00
2022-11-14T18:47:59.570Z,25.47
2022-11-14T18:50:47.017Z,26.10
2022-11-14T18:53:35.523Z,27.47
2022-11-14T18:56:25.737Z,28.20
2022-11-14T18:59:15.265Z,27.27
2022-11-14T19:02:02.309Z,28.33
2022-11-14T19:04:49.244Z,26.50
2022-11-14T19:07:38.657Z,27.10
2022-11-14T19:10:25.558Z,28.50
2022-11-14T19:13:12.517Z,25.67
2022-11-14T19:16:03.818Z,27.30
2022-11-14T19:18:50.794Z,27.33
2022-11-14T19:21:41.049Z,27.43
2022-11-14T19:24:30.866Z,25.90
2022-11-14T19:27:18.247Z,25.73
2022-11-14T19:30:05.755Z,25.90
2022-11-14T19:32:52.675Z,25.83
2022-11-14T19:35:42.393Z,25.77
2022-11-14T19:38:32.349Z,24.33
2022-11-14T19:41:21.172Z,23.83
2022-11-14T19:44:12.468Z,25.27
2022-11-14T19:47:02.394Z,23.47
2022-11-14T19:49:50.231Z,24.03
2022-11-14T19:52:37.598Z,23.07
2022-11-14T19:55:24.590Z,22.10
2022-11-14T19:58:11.943Z,24.10
2022-11-14T20:01:03.268Z,24.57
2022-11-14T20:03:54.984Z,22.73
2022-11-14T20:06:43.028Z,23.77
2022-11-14T20:09:34.352Z,23.50
2022-11-14T20:12:25.103Z,24.20
2022-11-14T20:15:14.854Z,25.37
2022-11-14T20:18:04.166Z,25.80
2022-11-14T20:20:53.225Z,22.73
2022-11-14T20:23:42.479Z,24.57
2022-11-14T20:26:31.626Z,23.57
2022-11-14T20:29:20.160Z,24.37
2022-11-14T20:32:13.050Z,23.83
2022-11-14T20:35:04.715Z,24.83
2022-11-14T20:37:52.092Z,22.90
2022-11-14T20:40:39.525Z,22.73
2022-11-14T20:43:27.302Z,23.70
2022-11-14T20:46:16.161Z,24.03
2022-11-14T20:49:05.470Z,23.63
2022-11-14T20:51:52.878Z,22.50
2022-11-14T20:54:40.239Z,23.03
2022-11-14T20:57:27.605Z,22.40
2022-11-14T21:00:16.026Z,23.90
2022-11-14T21:03:03.683Z,22.70
2022-11-14T21:05:50.739Z,23.90
2022-11-14T21:08:38.714Z,23.80
2022-11-14T21:11:26.811Z,21.10
2022-11-14T21:14:15.054Z,23.80
2022-11-14T21:17:03.353Z,20.07
2022-11-14T21:19:53.303Z,22.57
2022-11-14T21:22:43.494Z,23.70
2022-11-14T21:25:35.363Z,23.67
2022-11-14T21:28:24.973Z,24.83
2022-11-14T21:31:15.382Z,24.83
2022-11-14T21:34:08.626Z,25.73
2022-11-14T21:36:59.096Z,24.97
2022-11-14T21:39:48.122Z,24.90
2022-11-14T21:42:35.621Z,25.83
2022-11-14T21:45:22.948Z,24.13
2022-11-14T21:48:10.306Z,24.47
2022-11-14T21:51:07.865Z,26.50
2022-11-14T21:53:58.112Z,23.80
2022-11-14T21:56:45.537Z,23.63
2022-11-14T21:59:32.908Z,24.00
2022-11-14T22:02:39.154Z,23.03
2022-11-14T22:05:26.502Z,25.47
2022-11-14T22:08:15.557Z,23.13
2022-11-14T22:11:03.382Z,24.53
2022-11-14T22:13:50.620Z,22.80
2022-11-14T22:16:37.621Z,23.37
2022-11-14T22:19:24.877Z,24.30
2022-11-14T22:22:11.848Z,24.63
2022-11-14T22:24:59.558Z,24.50
2022-11-14T22:27:46.557Z,24.50
2022-11-14T22:30:33.458Z,24.40
2022-11-14T22:33:20.399Z,24.13
2022-11-14T22:36:09.909Z,24.40
2022-11-14T22:38:57.315Z,23.37
2022-11-14T22:41:44.240Z,23.53
2022-11-14T22:44:31.158Z,23.03
2022-11-14T22:47:18.081Z,24.67
2022-11-14T22:50:05.689Z,24.37
2022-11-14T22:52:54.555Z,23.43
2022-11-14T22:55:50.850Z,25.70
2022-11-14T22:58:39.988Z,23.57
2022-11-14T23:01:29.943Z,24.07
2022-11-14T23:04:16.975Z,24.40
2022-11-14T23:07:05.791Z,23.53
2022-11-14T23:09:53.198Z,25.10
2022-11-14T23:12:40.540Z,24.33
2022-11-14T23:15:27.872Z,25.13
2022-11-14T23:18:15.450Z,23.37
2022-11-14T23:21:06.679Z,25.60
2022-11-14T23:23:54.947Z,22.77
2022-11-14T23:26:41.897Z,23.60
2022-11-14T23:29:28.809Z,24.90
2022-11-14T23:32:15.752Z,24.47
2022-11-14T23:35:02.641Z,24.33
2022-11-14T23:37:49.590Z,24.37
2022-11-14T23:40:36.481Z,25.20
2022-11-14T23:43:23.464Z,24.00
2022-11-14T23:46:12.866Z,24.63
2022-11-14T23:49:00.194Z,22.83
2022-11-14T23:51:47.574Z,23.40
2022-11-14T23:54:34.542Z,22.60
2022-11-14T23:57:21.479Z,23.30
